sensor_id;sensor_type;location;lat;lon;timestamp;P1;durP1;ratioP1;P2;durP2;ratioP2
54241;SDS011;40156;51.080;17.082;2023-04-12T00:02:26;7.53;;;2.67;;
54241;SDS011;40156;51.080;17.082;2023-04-12T00:04:54;6.45;;;3.55;;
54241;SDS011;40156;51.080;17.082;2023-04-12T00:07:22;7.72;;;3.40;;
54241;SDS011;40156;51.080;17.082;2023-04-12T00:09:50;6.53;;;3.15;;
54241;SDS011;40156;51.080;17.082;2023-04-12T00:12:17;7.75;;;3.38;;
54241;SDS011;40156;51.080;17.082;2023-04-12T00:14:45;7.40;;;3.25;;
54241;SDS011;40156;51.080;17.082;2023-04-12T00:17:12;6.57;;;3.15;;
54241;SDS011;40156;51.080;17.082;2023-04-12T00:19:40;7.30;;;3.53;;
54241;SDS011;40156;51.080;17.082;2023-04-12T00:22:08;5.57;;;2.90;;
54241;SDS011;40156;51.080;17.082;2023-04-12T00:24:37;6.97;;;3.40;;
54241;SDS011;40156;51.080;17.082;2023-04-12T00:27:05;6.95;;;3.45;;
54241;SDS011;40156;51.080;17.082;2023-04-12T00:29:33;6.95;;;3.25;;
54241;SDS011;40156;51.080;17.082;2023-04-12T00:32:01;9.23;;;3.63;;
54241;SDS011;40156;51.080;17.082;2023-04-12T00:34:28;7.22;;;2.85;;
54241;SDS011;40156;51.080;17.082;2023-04-12T00:36:59;5.95;;;2.78;;
54241;SDS011;40156;51.080;17.082;2023-04-12T00:39:27;6.28;;;3.00;;
54241;SDS011;40156;51.080;17.082;2023-04-12T00:41:54;6.38;;;2.58;;
54241;SDS011;40156;51.080;17.082;2023-04-12T00:44:22;6.78;;;2.70;;
54241;SDS011;40156;51.080;17.082;2023-04-12T00:46:49;4.78;;;2.35;;
54241;SDS011;40156;51.080;17.082;2023-04-12T00:49:17;5.85;;;2.70;;
54241;SDS011;40156;51.080;17.082;2023-04-12T00:51:44;7.07;;;2.95;;
54241;SDS011;40156;51.080;17.082;2023-04-12T00:54:12;6.82;;;3.00;;
54241;SDS011;40156;51.080;17.082;2023-04-12T00:56:40;8.48;;;3.47;;
54241;SDS011;40156;51.080;17.082;2023-04-12T00:59:07;7.72;;;3.35;;
54241;SDS011;40156;51.080;17.082;2023-04-12T01:01:34;6.38;;;2.85;;
54241;SDS011;40156;51.080;17.082;2023-04-12T01:04:02;6.50;;;2.92;;
54241;SDS011;40156;51.080;17.082;2023-04-12T01:06:36;5.78;;;2.70;;
54241;SDS011;40156;51.080;17.082;2023-04-12T01:09:18;4.82;;;2.75;;
54241;SDS011;40156;51.080;17.082;2023-04-12T01:12:07;7.18;;;2.97;;
54241;SDS011;40156;51.080;17.082;2023-04-12T01:14:43;7.53;;;2.53;;
54241;SDS011;40156;51.080;17.082;2023-04-12T01:17:13;5.53;;;2.65;;
54241;SDS011;40156;51.080;17.082;2023-04-12T01:19:55;9.18;;;2.10;;
54241;SDS011;40156;51.080;17.082;2023-04-12T01:30:06;5.55;;;2.60;;
54241;SDS011;40156;51.080;17.082;2023-04-12T01:32:34;4.50;;;2.50;;
54241;SDS011;40156;51.080;17.082;2023-04-12T01:35:05;7.03;;;2.65;;
54241;SDS011;40156;51.080;17.082;2023-04-12T01:37:33;5.32;;;2.55;;
54241;SDS011;40156;51.080;17.082;2023-04-12T01:40:01;6.55;;;2.75;;
54241;SDS011;40156;51.080;17.082;2023-04-12T01:42:29;6.82;;;2.75;;
54241;SDS011;40156;51.080;17.082;2023-04-12T01:44:57;6.10;;;2.33;;
54241;SDS011;40156;51.080;17.082;2023-04-12T01:47:24;6.32;;;2.70;;
54241;SDS011;40156;51.080;17.082;2023-04-12T01:52:41;8.30;;;3.10;;
54241;SDS011;40156;51.080;17.082;2023-04-12T01:55:09;8.10;;;2.90;;
54241;SDS011;40156;51.080;17.082;2023-04-12T01:57:37;5.45;;;2.70;;
54241;SDS011;40156;51.080;17.082;2023-04-12T02:00:06;4.55;;;2.35;;
54241;SDS011;40156;51.080;17.082;2023-04-12T02:02:34;6.75;;;2.55;;
54241;SDS011;40156;51.080;17.082;2023-04-12T02:05:02;6.32;;;3.28;;
54241;SDS011;40156;51.080;17.082;2023-04-12T02:07:30;7.45;;;2.65;;
54241;SDS011;40156;51.080;17.082;2023-04-12T02:09:58;7.00;;;2.80;;
54241;SDS011;40156;51.080;17.082;2023-04-12T02:12:25;8.77;;;2.42;;
54241;SDS011;40156;51.080;17.082;2023-04-12T02:14:53;6.93;;;2.72;;
54241;SDS011;40156;51.080;17.082;2023-04-12T02:17:20;6.88;;;3.53;;
54241;SDS011;40156;51.080;17.082;2023-04-12T02:19:48;7.65;;;3.25;;
54241;SDS011;40156;51.080;17.082;2023-04-12T02:22:15;8.60;;;3.47;;
54241;SDS011;40156;51.080;17.082;2023-04-12T02:24:43;7.18;;;3.58;;
54241;SDS011;40156;51.080;17.082;2023-04-12T02:27:10;13.50;;;4.10;;
54241;SDS011;40156;51.080;17.082;2023-04-12T02:29:37;7.93;;;3.25;;
54241;SDS011;40156;51.080;17.082;2023-04-12T02:32:05;8.32;;;3.97;;
54241;SDS011;40156;51.080;17.082;2023-04-12T02:34:32;10.15;;;4.18;;
54241;SDS011;40156;51.080;17.082;2023-04-12T02:36:59;7.40;;;3.47;;
54241;SDS011;40156;51.080;17.082;2023-04-12T02:39:27;5.72;;;3.70;;
54241;SDS011;40156;51.080;17.082;2023-04-12T02:41:54;5.30;;;3.22;;
54241;SDS011;40156;51.080;17.082;2023-04-12T02:44:22;12.02;;;4.13;;
54241;SDS011;40156;51.080;17.082;2023-04-12T02:46:49;6.97;;;3.40;;
54241;SDS011;40156;51.080;17.082;2023-04-12T02:49:17;9.20;;;3.95;;
54241;SDS011;40156;51.080;17.082;2023-04-12T02:51:46;6.28;;;3.80;;
54241;SDS011;40156;51.080;17.082;2023-04-12T02:54:13;6.97;;;3.78;;
54241;SDS011;40156;51.080;17.082;2023-04-12T02:56:41;8.10;;;3.60;;
54241;SDS011;40156;51.080;17.082;2023-04-12T02:59:08;14.18;;;4.32;;
54241;SDS011;40156;51.080;17.082;2023-04-12T03:01:36;8.50;;;4.00;;
54241;SDS011;40156;51.080;17.082;2023-04-12T03:04:22;9.00;;;4.05;;
54241;SDS011;40156;51.080;17.082;2023-04-12T03:07:08;8.38;;;3.55;;
54241;SDS011;40156;51.080;17.082;2023-04-12T03:09:56;9.38;;;3.75;;
54241;SDS011;40156;51.080;17.082;2023-04-12T03:12:44;12.25;;;3.88;;
54241;SDS011;40156;51.080;17.082;2023-04-12T03:15:32;11.57;;;4.50;;
54241;SDS011;40156;51.080;17.082;2023-04-12T03:18:00;9.82;;;3.65;;
54241;SDS011;40156;51.080;17.082;2023-04-12T03:20:28;8.55;;;4.63;;
54241;SDS011;40156;51.080;17.082;2023-04-12T03:22:55;25.90;;;5.80;;
54241;SDS011;40156;51.080;17.082;2023-04-12T03:25:23;8.73;;;5.05;;
54241;SDS011;40156;51.080;17.082;2023-04-12T03:27:50;12.52;;;5.72;;
54241;SDS011;40156;51.080;17.082;2023-04-12T03:30:18;10.60;;;4.80;;
54241;SDS011;40156;51.080;17.082;2023-04-12T03:32:45;14.55;;;5.78;;
54241;SDS011;40156;51.080;17.082;2023-04-12T03:35:13;10.07;;;5.95;;
54241;SDS011;40156;51.080;17.082;2023-04-12T03:37:41;10.35;;;5.00;;
54241;SDS011;40156;51.080;17.082;2023-04-12T03:40:09;9.45;;;4.65;;
54241;SDS011;40156;51.080;17.082;2023-04-12T03:42:36;14.70;;;5.10;;
54241;SDS011;40156;51.080;17.082;2023-04-12T03:45:04;8.60;;;4.68;;
54241;SDS011;40156;51.080;17.082;2023-04-12T03:47:31;10.23;;;5.10;;
54241;SDS011;40156;51.080;17.082;2023-04-12T03:50:03;10.55;;;5.03;;
54241;SDS011;40156;51.080;17.082;2023-04-12T03:52:38;8.02;;;4.60;;
54241;SDS011;40156;51.080;17.082;2023-04-12T03:55:06;8.43;;;4.32;;
54241;SDS011;40156;51.080;17.082;2023-04-12T03:57:34;9.68;;;4.43;;
54241;SDS011;40156;51.080;17.082;2023-04-12T04:00:02;14.15;;;4.47;;
54241;SDS011;40156;51.080;17.082;2023-04-12T04:02:29;6.38;;;4.15;;
54241;SDS011;40156;51.080;17.082;2023-04-12T04:04:57;8.57;;;4.20;;
54241;SDS011;40156;51.080;17.082;2023-04-12T04:07:25;7.40;;;4.28;;
54241;SDS011;40156;51.080;17.082;2023-04-12T04:09:53;11.05;;;4.07;;
54241;SDS011;40156;51.080;17.082;2023-04-12T04:12:20;7.35;;;4.03;;
54241;SDS011;40156;51.080;17.082;2023-04-12T04:14:48;11.75;;;3.95;;
54241;SDS011;40156;51.080;17.082;2023-04-12T04:17:15;8.35;;;3.53;;
54241;SDS011;40156;51.080;17.082;2023-04-12T04:19:43;6.53;;;3.13;;
54241;SDS011;40156;51.080;17.082;2023-04-12T04:22:10;6.20;;;3.30;;
54241;SDS011;40156;51.080;17.082;2023-04-12T04:24:38;9.75;;;4.10;;
54241;SDS011;40156;51.080;17.082;2023-04-12T04:27:05;10.32;;;3.58;;
54241;SDS011;40156;51.080;17.082;2023-04-12T04:29:33;10.38;;;3.95;;
54241;SDS011;40156;51.080;17.082;2023-04-12T04:32:00;8.32;;;3.70;;
54241;SDS011;40156;51.080;17.082;2023-04-12T04:34:28;9.10;;;3.65;;
54241;SDS011;40156;51.080;17.082;2023-04-12T04:36:55;10.52;;;4.35;;
54241;SDS011;40156;51.080;17.082;2023-04-12T04:39:24;11.35;;;5.72;;
54241;SDS011;40156;51.080;17.082;2023-04-12T04:41:51;10.95;;;5.97;;
54241;SDS011;40156;51.080;17.082;2023-04-12T04:44:19;10.32;;;5.40;;
54241;SDS011;40156;51.080;17.082;2023-04-12T04:46:46;11.38;;;5.43;;
54241;SDS011;40156;51.080;17.082;2023-04-12T04:49:14;9.80;;;4.95;;
54241;SDS011;40156;51.080;17.082;2023-04-12T04:51:41;7.53;;;4.72;;
54241;SDS011;40156;51.080;17.082;2023-04-12T04:54:09;9.63;;;4.80;;
54241;SDS011;40156;51.080;17.082;2023-04-12T04:56:36;7.82;;;4.22;;
54241;SDS011;40156;51.080;17.082;2023-04-12T04:59:04;6.45;;;4.05;;
54241;SDS011;40156;51.080;17.082;2023-04-12T05:01:31;10.57;;;3.70;;
54241;SDS011;40156;51.080;17.082;2023-04-12T05:03:59;8.57;;;4.05;;
54241;SDS011;40156;51.080;17.082;2023-04-12T05:06:27;9.10;;;3.88;;
54241;SDS011;40156;51.080;17.082;2023-04-12T05:08:54;8.30;;;3.80;;
54241;SDS011;40156;51.080;17.082;2023-04-12T05:11:22;8.70;;;3.67;;
54241;SDS011;40156;51.080;17.082;2023-04-12T05:13:50;5.93;;;3.00;;
54241;SDS011;40156;51.080;17.082;2023-04-12T05:16:17;6.25;;;3.17;;
54241;SDS011;40156;51.080;17.082;2023-04-12T05:18:44;8.68;;;2.92;;
54241;SDS011;40156;51.080;17.082;2023-04-12T05:21:12;5.40;;;3.10;;
54241;SDS011;40156;51.080;17.082;2023-04-12T05:23:44;5.78;;;3.10;;
54241;SDS011;40156;51.080;17.082;2023-04-12T05:26:11;8.47;;;3.20;;
54241;SDS011;40156;51.080;17.082;2023-04-12T05:28:39;5.35;;;3.13;;
54241;SDS011;40156;51.080;17.082;2023-04-12T05:31:06;11.35;;;3.20;;
54241;SDS011;40156;51.080;17.082;2023-04-12T05:33:34;5.03;;;2.85;;
54241;SDS011;40156;51.080;17.082;2023-04-12T05:36:04;8.95;;;3.53;;
54241;SDS011;40156;51.080;17.082;2023-04-12T05:38:32;8.52;;;2.80;;
54241;SDS011;40156;51.080;17.082;2023-04-12T05:40:59;9.05;;;3.58;;
54241;SDS011;40156;51.080;17.082;2023-04-12T05:43:26;7.03;;;3.00;;
54241;SDS011;40156;51.080;17.082;2023-04-12T05:45:54;5.75;;;2.90;;
54241;SDS011;40156;51.080;17.082;2023-04-12T05:48:21;7.53;;;3.67;;
54241;SDS011;40156;51.080;17.082;2023-04-12T05:50:52;7.32;;;3.50;;
54241;SDS011;40156;51.080;17.082;2023-04-12T05:53:20;8.53;;;3.20;;
54241;SDS011;40156;51.080;17.082;2023-04-12T05:55:50;8.00;;;3.13;;
54241;SDS011;40156;51.080;17.082;2023-04-12T05:58:18;9.07;;;3.38;;
54241;SDS011;40156;51.080;17.082;2023-04-12T06:00:48;7.70;;;4.10;;
54241;SDS011;40156;51.080;17.082;2023-04-12T06:03:19;8.30;;;2.90;;
54241;SDS011;40156;51.080;17.082;2023-04-12T06:05:47;8.20;;;3.45;;
54241;SDS011;40156;51.080;17.082;2023-04-12T06:08:15;7.15;;;3.28;;
54241;SDS011;40156;51.080;17.082;2023-04-12T06:10:42;5.95;;;2.55;;
54241;SDS011;40156;51.080;17.082;2023-04-12T06:13:10;4.90;;;2.83;;
54241;SDS011;40156;51.080;17.082;2023-04-12T06:15:37;8.65;;;2.97;;
54241;SDS011;40156;51.080;17.082;2023-04-12T06:18:06;6.50;;;3.28;;
54241;SDS011;40156;51.080;17.082;2023-04-12T06:20:34;6.97;;;2.53;;
54241;SDS011;40156;51.080;17.082;2023-04-12T06:23:05;4.83;;;2.73;;
54241;SDS011;40156;51.080;17.082;2023-04-12T06:25:32;7.05;;;2.70;;
54241;SDS011;40156;51.080;17.082;2023-04-12T06:28:00;7.50;;;2.70;;
54241;SDS011;40156;51.080;17.082;2023-04-12T06:30:27;5.97;;;2.30;;
54241;SDS011;40156;51.080;17.082;2023-04-12T06:32:57;6.53;;;2.70;;
54241;SDS011;40156;51.080;17.082;2023-04-12T06:35:24;7.00;;;2.97;;
54241;SDS011;40156;51.080;17.082;2023-04-12T06:37:52;7.63;;;2.92;;
54241;SDS011;40156;51.080;17.082;2023-04-12T06:40:19;6.25;;;2.53;;
54241;SDS011;40156;51.080;17.082;2023-04-12T06:42:47;4.07;;;2.58;;
54241;SDS011;40156;51.080;17.082;2023-04-12T06:45:14;4.90;;;2.55;;
54241;SDS011;40156;51.080;17.082;2023-04-12T06:47:42;4.57;;;2.30;;
54241;SDS011;40156;51.080;17.082;2023-04-12T06:50:15;4.50;;;2.70;;
54241;SDS011;40156;51.080;17.082;2023-04-12T06:52:47;4.22;;;2.20;;
54241;SDS011;40156;51.080;17.082;2023-04-12T06:55:14;3.03;;;1.95;;
54241;SDS011;40156;51.080;17.082;2023-04-12T06:57:43;6.10;;;2.65;;
54241;SDS011;40156;51.080;17.082;2023-04-12T07:00:11;4.95;;;2.70;;
54241;SDS011;40156;51.080;17.082;2023-04-12T07:02:38;3.53;;;2.40;;
54241;SDS011;40156;51.080;17.082;2023-04-12T07:05:06;3.30;;;1.90;;
54241;SDS011;40156;51.080;17.082;2023-04-12T07:07:34;5.95;;;2.95;;
54241;SDS011;40156;51.080;17.082;2023-04-12T07:10:01;4.15;;;2.50;;
54241;SDS011;40156;51.080;17.082;2023-04-12T07:12:29;5.47;;;2.40;;
54241;SDS011;40156;51.080;17.082;2023-04-12T07:14:56;4.60;;;2.70;;
54241;SDS011;40156;51.080;17.082;2023-04-12T07:17:24;4.50;;;2.90;;
54241;SDS011;40156;51.080;17.082;2023-04-12T07:19:54;4.68;;;2.97;;
54241;SDS011;40156;51.080;17.082;2023-04-12T07:22:22;7.80;;;2.85;;
54241;SDS011;40156;51.080;17.082;2023-04-12T07:24:51;5.18;;;2.90;;
54241;SDS011;40156;51.080;17.082;2023-04-12T07:27:19;6.00;;;2.63;;
54241;SDS011;40156;51.080;17.082;2023-04-12T07:29:46;6.53;;;3.08;;
54241;SDS011;40156;51.080;17.082;2023-04-12T07:32:15;2.85;;;1.83;;
54241;SDS011;40156;51.080;17.082;2023-04-12T07:34:42;3.75;;;2.40;;
54241;SDS011;40156;51.080;17.082;2023-04-12T07:37:10;5.55;;;2.10;;
54241;SDS011;40156;51.080;17.082;2023-04-12T07:39:38;7.47;;;2.95;;
54241;SDS011;40156;51.080;17.082;2023-04-12T07:42:05;4.78;;;2.20;;
54241;SDS011;40156;51.080;17.082;2023-04-12T07:44:35;6.55;;;3.38;;
54241;SDS011;40156;51.080;17.082;2023-04-12T07:47:05;6.65;;;3.40;;
54241;SDS011;40156;51.080;17.082;2023-04-12T07:49:33;9.70;;;3.25;;
54241;SDS011;40156;51.080;17.082;2023-04-12T07:52:00;5.43;;;3.58;;
54241;SDS011;40156;51.080;17.082;2023-04-12T07:54:29;4.65;;;2.90;;
54241;SDS011;40156;51.080;17.082;2023-04-12T07:56:58;4.80;;;3.20;;
54241;SDS011;40156;51.080;17.082;2023-04-12T07:59:25;5.05;;;3.30;;
54241;SDS011;40156;51.080;17.082;2023-04-12T08:01:53;5.95;;;3.10;;
54241;SDS011;40156;51.080;17.082;2023-04-12T08:04:20;7.97;;;2.72;;
54241;SDS011;40156;51.080;17.082;2023-04-12T08:06:50;2.80;;;2.20;;
54241;SDS011;40156;51.080;17.082;2023-04-12T08:09:18;4.95;;;2.50;;
54241;SDS011;40156;51.080;17.082;2023-04-12T08:11:46;6.97;;;2.92;;
54241;SDS011;40156;51.080;17.082;2023-04-12T08:14:13;6.65;;;2.75;;
54241;SDS011;40156;51.080;17.082;2023-04-12T08:16:41;5.38;;;2.58;;
54241;SDS011;40156;51.080;17.082;2023-04-12T08:19:08;4.60;;;3.60;;
54241;SDS011;40156;51.080;17.082;2023-04-12T08:21:36;6.95;;;2.92;;
54241;SDS011;40156;51.080;17.082;2023-04-12T08:24:04;3.65;;;2.63;;
54241;SDS011;40156;51.080;17.082;2023-04-12T08:26:41;5.20;;;2.88;;
54241;SDS011;40156;51.080;17.082;2023-04-12T08:29:08;3.78;;;2.00;;
54241;SDS011;40156;51.080;17.082;2023-04-12T08:31:36;5.82;;;2.40;;
54241;SDS011;40156;51.080;17.082;2023-04-12T08:34:04;6.80;;;2.33;;
54241;SDS011;40156;51.080;17.082;2023-04-12T08:36:31;3.58;;;2.13;;
54241;SDS011;40156;51.080;17.082;2023-04-12T08:39:02;7.25;;;2.60;;
54241;SDS011;40156;51.080;17.082;2023-04-12T08:41:35;5.38;;;2.40;;
54241;SDS011;40156;51.080;17.082;2023-04-12T08:44:42;3.28;;;2.10;;
54241;SDS011;40156;51.080;17.082;2023-04-12T08:47:10;5.95;;;1.95;;
54241;SDS011;40156;51.080;17.082;2023-04-12T08:49:37;2.47;;;1.90;;
54241;SDS011;40156;51.080;17.082;2023-04-12T08:52:07;5.10;;;1.90;;
54241;SDS011;40156;51.080;17.082;2023-04-12T08:54:35;3.83;;;2.00;;
54241;SDS011;40156;51.080;17.082;2023-04-12T08:57:03;3.10;;;1.88;;
54241;SDS011;40156;51.080;17.082;2023-04-12T08:59:31;4.07;;;2.13;;
54241;SDS011;40156;51.080;17.082;2023-04-12T09:01:59;3.85;;;1.70;;
54241;SDS011;40156;51.080;17.082;2023-04-12T09:04:26;2.30;;;1.85;;
54241;SDS011;40156;51.080;17.082;2023-04-12T09:06:55;2.60;;;1.80;;
54241;SDS011;40156;51.080;17.082;2023-04-12T09:12:12;2.60;;;1.95;;
54241;SDS011;40156;51.080;17.082;2023-04-12T09:14:40;4.72;;;1.90;;
54241;SDS011;40156;51.080;17.082;2023-04-12T09:17:24;3.28;;;1.60;;
54241;SDS011;40156;51.080;17.082;2023-04-12T09:19:52;2.70;;;2.30;;
54241;SDS011;40156;51.080;17.082;2023-04-12T09:22:40;3.78;;;2.38;;
54241;SDS011;40156;51.080;17.082;2023-04-12T09:25:19;5.43;;;2.35;;
54241;SDS011;40156;51.080;17.082;2023-04-12T09:28:00;3.33;;;2.08;;
54241;SDS011;40156;51.080;17.082;2023-04-12T09:30:28;3.67;;;2.15;;
54241;SDS011;40156;51.080;17.082;2023-04-12T09:32:56;3.33;;;1.73;;
54241;SDS011;40156;51.080;17.082;2023-04-12T09:35:36;2.90;;;1.75;;
54241;SDS011;40156;51.080;17.082;2023-04-12T09:38:07;4.28;;;2.33;;
54241;SDS011;40156;51.080;17.082;2023-04-12T09:40:38;4.47;;;2.28;;
54241;SDS011;40156;51.080;17.082;2023-04-12T09:43:06;4.05;;;2.30;;
54241;SDS011;40156;51.080;17.082;2023-04-12T09:45:34;3.70;;;2.33;;
54241;SDS011;40156;51.080;17.082;2023-04-12T09:48:04;3.25;;;1.92;;
54241;SDS011;40156;51.080;17.082;2023-04-12T09:50:32;3.58;;;2.08;;
54241;SDS011;40156;51.080;17.082;2023-04-12T09:53:01;4.25;;;2.00;;
54241;SDS011;40156;51.080;17.082;2023-04-12T09:55:29;3.90;;;2.15;;
54241;SDS011;40156;51.080;17.082;2023-04-12T09:58:09;4.70;;;2.08;;
54241;SDS011;40156;51.080;17.082;2023-04-12T10:00:37;3.15;;;2.08;;
54241;SDS011;40156;51.080;17.082;2023-04-12T10:03:05;2.80;;;1.88;;
54241;SDS011;40156;51.080;17.082;2023-04-12T10:05:33;4.30;;;1.70;;
54241;SDS011;40156;51.080;17.082;2023-04-12T10:08:04;4.03;;;1.63;;
54241;SDS011;40156;51.080;17.082;2023-04-12T10:10:31;3.75;;;1.75;;
54241;SDS011;40156;51.080;17.082;2023-04-12T10:12:59;6.05;;;1.75;;
54241;SDS011;40156;51.080;17.082;2023-04-12T10:15:26;3.35;;;1.77;;
54241;SDS011;40156;51.080;17.082;2023-04-12T10:17:55;3.00;;;1.70;;
54241;SDS011;40156;51.080;17.082;2023-04-12T10:20:23;2.38;;;1.70;;
54241;SDS011;40156;51.080;17.082;2023-04-12T10:22:55;5.65;;;1.80;;
54241;SDS011;40156;51.080;17.082;2023-04-12T10:25:23;3.17;;;1.70;;
54241;SDS011;40156;51.080;17.082;2023-04-12T10:27:51;2.30;;;1.40;;
54241;SDS011;40156;51.080;17.082;2023-04-12T10:35:47;2.90;;;1.58;;
54241;SDS011;40156;51.080;17.082;2023-04-12T10:38:15;3.30;;;1.90;;
54241;SDS011;40156;51.080;17.082;2023-04-12T10:43:29;3.78;;;2.10;;
54241;SDS011;40156;51.080;17.082;2023-04-12T10:45:58;3.75;;;1.90;;
54241;SDS011;40156;51.080;17.082;2023-04-12T10:51:24;3.22;;;1.60;;
54241;SDS011;40156;51.080;17.082;2023-04-12T10:59:02;1.92;;;1.30;;
54241;SDS011;40156;51.080;17.082;2023-04-12T11:01:31;2.13;;;1.60;;
54241;SDS011;40156;51.080;17.082;2023-04-12T11:09:18;2.92;;;1.33;;
54241;SDS011;40156;51.080;17.082;2023-04-12T11:11:45;3.53;;;1.40;;
54241;SDS011;40156;51.080;17.082;2023-04-12T11:14:14;1.30;;;1.20;;
54241;SDS011;40156;51.080;17.082;2023-04-12T11:19:27;3.17;;;1.90;;
54241;SDS011;40156;51.080;17.082;2023-04-12T11:21:55;1.92;;;1.58;;
54241;SDS011;40156;51.080;17.082;2023-04-12T11:24:23;5.30;;;1.60;;
54241;SDS011;40156;51.080;17.082;2023-04-12T11:26:50;2.15;;;1.60;;
54241;SDS011;40156;51.080;17.082;2023-04-12T11:29:25;3.03;;;1.52;;
54241;SDS011;40156;51.080;17.082;2023-04-12T11:31:55;3.20;;;1.60;;
54241;SDS011;40156;51.080;17.082;2023-04-12T11:34:23;2.90;;;1.95;;
54241;SDS011;40156;51.080;17.082;2023-04-12T11:36:51;2.15;;;1.10;;
54241;SDS011;40156;51.080;17.082;2023-04-12T11:39:19;1.63;;;1.15;;
54241;SDS011;40156;51.080;17.082;2023-04-12T11:41:47;1.48;;;1.00;;
54241;SDS011;40156;51.080;17.082;2023-04-12T11:44:15;2.15;;;1.20;;
54241;SDS011;40156;51.080;17.082;2023-04-12T11:46:42;3.47;;;1.42;;
54241;SDS011;40156;51.080;17.082;2023-04-12T11:49:13;1.83;;;1.20;;
54241;SDS011;40156;51.080;17.082;2023-04-12T11:51:40;2.95;;;1.40;;
54241;SDS011;40156;51.080;17.082;2023-04-12T11:54:09;1.85;;;1.38;;
54241;SDS011;40156;51.080;17.082;2023-04-12T11:56:39;2.95;;;1.45;;
54241;SDS011;40156;51.080;17.082;2023-04-12T11:59:10;1.67;;;1.27;;
54241;SDS011;40156;51.080;17.082;2023-04-12T12:01:37;5.60;;;1.48;;
54241;SDS011;40156;51.080;17.082;2023-04-12T12:04:05;3.22;;;1.48;;
54241;SDS011;40156;51.080;17.082;2023-04-12T12:06:33;3.80;;;1.95;;
54241;SDS011;40156;51.080;17.082;2023-04-12T12:09:02;3.28;;;1.50;;
54241;SDS011;40156;51.080;17.082;2023-04-12T12:11:29;1.70;;;1.38;;
54241;SDS011;40156;51.080;17.082;2023-04-12T12:13:57;3.58;;;1.75;;
54241;SDS011;40156;51.080;17.082;2023-04-12T12:16:26;3.20;;;1.90;;
54241;SDS011;40156;51.080;17.082;2023-04-12T12:18:55;3.85;;;2.08;;
54241;SDS011;40156;51.080;17.082;2023-04-12T12:21:23;2.70;;;1.67;;
54241;SDS011;40156;51.080;17.082;2023-04-12T12:23:52;5.43;;;1.85;;
54241;SDS011;40156;51.080;17.082;2023-04-12T12:26:20;4.88;;;2.15;;
54241;SDS011;40156;51.080;17.082;2023-04-12T12:28:48;5.00;;;1.67;;
54241;SDS011;40156;51.080;17.082;2023-04-12T12:31:20;2.78;;;1.52;;
54241;SDS011;40156;51.080;17.082;2023-04-12T12:36:18;2.95;;;1.70;;
54241;SDS011;40156;51.080;17.082;2023-04-12T12:38:46;3.28;;;2.10;;
54241;SDS011;40156;51.080;17.082;2023-04-12T12:41:17;4.05;;;1.75;;
54241;SDS011;40156;51.080;17.082;2023-04-12T12:43:48;3.42;;;1.58;;
54241;SDS011;40156;51.080;17.082;2023-04-12T12:46:17;2.23;;;1.50;;
54241;SDS011;40156;51.080;17.082;2023-04-12T12:48:45;4.15;;;1.75;;
54241;SDS011;40156;51.080;17.082;2023-04-12T12:51:13;2.80;;;2.08;;
54241;SDS011;40156;51.080;17.082;2023-04-12T12:53:42;3.95;;;1.60;;
54241;SDS011;40156;51.080;17.082;2023-04-12T12:56:10;4.63;;;1.60;;
54241;SDS011;40156;51.080;17.082;2023-04-12T12:58:38;2.78;;;1.60;;
54241;SDS011;40156;51.080;17.082;2023-04-12T13:01:07;2.35;;;1.55;;
54241;SDS011;40156;51.080;17.082;2023-04-12T13:03:35;3.45;;;1.77;;
54241;SDS011;40156;51.080;17.082;2023-04-12T13:06:02;3.50;;;1.75;;
54241;SDS011;40156;51.080;17.082;2023-04-12T13:08:30;1.83;;;1.20;;
54241;SDS011;40156;51.080;17.082;2023-04-12T13:10:57;6.30;;;1.60;;
54241;SDS011;40156;51.080;17.082;2023-04-12T13:13:25;4.43;;;1.40;;
54241;SDS011;40156;51.080;17.082;2023-04-12T13:15:52;3.33;;;1.40;;
54241;SDS011;40156;51.080;17.082;2023-04-12T13:18:20;4.18;;;1.90;;
54241;SDS011;40156;51.080;17.082;2023-04-12T13:20:49;3.95;;;1.30;;
54241;SDS011;40156;51.080;17.082;2023-04-12T13:23:17;6.07;;;1.98;;
54241;SDS011;40156;51.080;17.082;2023-04-12T13:25:44;3.28;;;2.03;;
54241;SDS011;40156;51.080;17.082;2023-04-12T13:28:12;3.03;;;1.35;;
54241;SDS011;40156;51.080;17.082;2023-04-12T13:30:39;2.83;;;1.35;;
54241;SDS011;40156;51.080;17.082;2023-04-12T13:33:07;6.88;;;1.83;;
54241;SDS011;40156;51.080;17.082;2023-04-12T13:35:34;2.75;;;1.42;;
54241;SDS011;40156;51.080;17.082;2023-04-12T13:38:02;2.97;;;1.77;;
54241;SDS011;40156;51.080;17.082;2023-04-12T13:40:29;1.52;;;1.08;;
54241;SDS011;40156;51.080;17.082;2023-04-12T13:42:57;3.10;;;1.90;;
54241;SDS011;40156;51.080;17.082;2023-04-12T13:45:24;2.28;;;1.25;;
54241;SDS011;40156;51.080;17.082;2023-04-12T13:47:52;5.03;;;1.63;;
54241;SDS011;40156;51.080;17.082;2023-04-12T13:50:19;4.78;;;1.30;;
54241;SDS011;40156;51.080;17.082;2023-04-12T13:52:47;4.57;;;1.50;;
54241;SDS011;40156;51.080;17.082;2023-04-12T13:55:15;2.42;;;1.10;;
54241;SDS011;40156;51.080;17.082;2023-04-12T13:57:42;3.92;;;1.55;;
54241;SDS011;40156;51.080;17.082;2023-04-12T14:00:10;2.85;;;1.48;;
54241;SDS011;40156;51.080;17.082;2023-04-12T14:02:37;3.75;;;1.50;;
54241;SDS011;40156;51.080;17.082;2023-04-12T14:05:05;3.33;;;1.20;;
54241;SDS011;40156;51.080;17.082;2023-04-12T14:07:33;4.32;;;1.17;;
54241;SDS011;40156;51.080;17.082;2023-04-12T14:10:00;3.63;;;1.20;;
54241;SDS011;40156;51.080;17.082;2023-04-12T14:12:28;2.45;;;1.40;;
54241;SDS011;40156;51.080;17.082;2023-04-12T14:14:55;3.15;;;1.08;;
54241;SDS011;40156;51.080;17.082;2023-04-12T14:17:23;2.30;;;1.48;;
54241;SDS011;40156;51.080;17.082;2023-04-12T14:19:51;2.50;;;1.15;;
54241;SDS011;40156;51.080;17.082;2023-04-12T14:22:18;2.45;;;1.20;;
54241;SDS011;40156;51.080;17.082;2023-04-12T14:24:46;4.97;;;1.60;;
54241;SDS011;40156;51.080;17.082;2023-04-12T14:27:14;1.42;;;1.13;;
54241;SDS011;40156;51.080;17.082;2023-04-12T14:29:44;2.30;;;1.20;;
54241;SDS011;40156;51.080;17.082;2023-04-12T14:32:12;2.28;;;1.27;;
54241;SDS011;40156;51.080;17.082;2023-04-12T14:34:39;3.70;;;1.25;;
54241;SDS011;40156;51.080;17.082;2023-04-12T14:37:07;3.28;;;1.58;;
54241;SDS011;40156;51.080;17.082;2023-04-12T14:39:34;2.97;;;1.20;;
54241;SDS011;40156;51.080;17.082;2023-04-12T14:42:02;2.38;;;1.20;;
54241;SDS011;40156;51.080;17.082;2023-04-12T14:44:30;2.97;;;1.60;;
54241;SDS011;40156;51.080;17.082;2023-04-12T14:46:58;1.85;;;1.27;;
54241;SDS011;40156;51.080;17.082;2023-04-12T14:49:25;2.63;;;1.10;;
54241;SDS011;40156;51.080;17.082;2023-04-12T14:51:53;3.03;;;1.45;;
54241;SDS011;40156;51.080;17.082;2023-04-12T14:54:20;1.77;;;1.20;;
54241;SDS011;40156;51.080;17.082;2023-04-12T14:56:48;2.45;;;1.10;;
54241;SDS011;40156;51.080;17.082;2023-04-12T14:59:21;3.88;;;1.33;;
54241;SDS011;40156;51.080;17.082;2023-04-12T15:01:49;3.80;;;1.40;;
54241;SDS011;40156;51.080;17.082;2023-04-12T15:04:17;2.15;;;1.20;;
54241;SDS011;40156;51.080;17.082;2023-04-12T15:06:45;2.42;;;1.38;;
54241;SDS011;40156;51.080;17.082;2023-04-12T15:09:12;2.63;;;1.35;;
54241;SDS011;40156;51.080;17.082;2023-04-12T15:11:40;2.53;;;1.55;;
54241;SDS011;40156;51.080;17.082;2023-04-12T15:14:07;2.05;;;1.40;;
54241;SDS011;40156;51.080;17.082;2023-04-12T15:16:35;2.72;;;1.30;;
54241;SDS011;40156;51.080;17.082;2023-04-12T15:19:02;5.95;;;1.67;;
54241;SDS011;40156;51.080;17.082;2023-04-12T15:21:40;2.20;;;1.20;;
54241;SDS011;40156;51.080;17.082;2023-04-12T15:24:07;2.88;;;1.20;;